sensor_id;sensor_type;location;lat;lon;timestamp;pressure;altitude;pressure_sealevel;temperature;humidity
38939;BME280;24211;49.980;19.776;2023-02-26T00:00:11;98131.50;;;2.37;100.00
38939;BME280;24211;49.980;19.776;2023-02-26T00:03:01;98141.66;;;2.40;100.00
38939;BME280;24211;49.980;19.776;2023-02-26T00:05:28;98145.72;;;2.42;100.00
38939;BME280;24211;49.980;19.776;2023-02-26T00:07:55;98152.59;;;2.43;100.00
38939;BME280;24211;49.980;19.776;2023-02-26T00:10:22;98159.50;;;2.44;100.00
38939;BME280;24211;49.980;19.776;2023-02-26T00:12:49;98159.50;;;2.44;100.00
38939;BME280;24211;49.980;19.776;2023-02-26T00:15:17;98164.75;;;2.44;100.00
38939;BME280;24211;49.980;19.776;2023-02-26T00:20:29;98161.53;;;2.42;100.00
38939;BME280;24211;49.980;19.776;2023-02-26T00:22:57;98161.13;;;2.45;100.00
38939;BME280;24211;49.980;19.776;2023-02-26T00:25:24;98167.63;;;2.43;100.00
38939;BME280;24211;49.980;19.776;2023-02-26T00:27:51;98177.34;;;2.42;100.00
38939;BME280;24211;49.980;19.776;2023-02-26T00:30:20;98179.38;;;2.40;100.00
38939;BME280;24211;49.980;19.776;2023-02-26T00:32:47;98189.28;;;2.38;100.00
38939;BME280;24211;49.980;19.776;2023-02-26T00:35:15;98191.31;;;2.36;100.00
38939;BME280;24211;49.980;19.776;2023-02-26T00:38:08;98192.72;;;2.32;100.00
38939;BME280;24211;49.980;19.776;2023-02-26T00:40:46;98203.50;;;2.31;100.00
38939;BME280;24211;49.980;19.776;2023-02-26T00:43:23;98212.19;;;2.31;100.00
38939;BME280;24211;49.980;19.776;2023-02-26T00:46:06;98196.78;;;2.28;100.00
38939;BME280;24211;49.980;19.776;2023-02-26T00:49:15;98210.97;;;2.27;100.00
38939;BME280;24211;49.980;19.776;2023-02-26T00:52:04;98204.47;;;2.23;100.00
38939;BME280;24211;49.980;19.776;2023-02-26T00:54:32;98208.13;;;2.22;100.00
38939;BME280;24211;49.980;19.776;2023-02-26T00:57:01;98207.28;;;2.15;100.00
38939;BME280;24211;49.980;19.776;2023-02-26T00:59:30;98212.56;;;2.15;100.00
38939;BME280;24211;49.980;19.776;2023-02-26T01:01:57;98210.91;;;2.14;100.00
38939;BME280;24211;49.980;19.776;2023-02-26T01:04:24;98214.59;;;2.13;100.00
38939;BME280;24211;49.980;19.776;2023-02-26T01:06:56;98211.94;;;2.13;100.00
38939;BME280;24211;49.980;19.776;2023-02-26T01:09:34;98212.94;;;2.12;100.00
38939;BME280;24211;49.980;19.776;2023-02-26T01:12:09;98209.69;;;2.10;100.00
38939;BME280;24211;49.980;19.776;2023-02-26T01:14:40;98209.69;;;2.10;100.00
38939;BME280;24211;49.980;19.776;2023-02-26T01:17:39;98196.97;;;2.14;100.00
38939;BME280;24211;49.980;19.776;2023-02-26T01:20:21;98195.09;;;2.14;100.00
38939;BME280;24211;49.980;19.776;2023-02-26T01:25:35;98187.84;;;2.16;100.00
38939;BME280;24211;49.980;19.776;2023-02-26T01:28:03;98191.09;;;2.18;100.00
38939;BME280;24211;49.980;19.776;2023-02-26T01:30:31;98189.44;;;2.17;100.00
38939;BME280;24211;49.980;19.776;2023-02-26T01:33:10;98190.25;;;2.18;100.00
38939;BME280;24211;49.980;19.776;2023-02-26T01:35:52;98181.75;;;2.16;100.00
38939;BME280;24211;49.980;19.776;2023-02-26T01:38:29;98188.44;;;2.18;100.00
38939;BME280;24211;49.980;19.776;2023-02-26T01:47:15;98213.00;;;2.25;100.00
38939;BME280;24211;49.980;19.776;2023-02-26T01:49:44;98221.72;;;2.26;100.00
38939;BME280;24211;49.980;19.776;2023-02-26T01:55:04;98223.94;;;2.22;100.00
38939;BME280;24211;49.980;19.776;2023-02-26T01:57:31;98230.00;;;2.16;100.00
38939;BME280;24211;49.980;19.776;2023-02-26T01:59:58;98232.00;;;2.14;100.00
38939;BME280;24211;49.980;19.776;2023-02-26T02:02:26;98243.38;;;2.15;100.00
38939;BME280;24211;49.980;19.776;2023-02-26T02:04:54;98241.53;;;2.15;100.00
38939;BME280;24211;49.980;19.776;2023-02-26T02:07:21;98257.97;;;2.17;100.00
38939;BME280;24211;49.980;19.776;2023-02-26T02:09:48;98258.41;;;2.21;100.00
38939;BME280;24211;49.980;19.776;2023-02-26T02:15:24;98249.47;;;2.22;100.00
38939;BME280;24211;49.980;19.776;2023-02-26T02:18:05;98248.25;;;2.18;100.00
38939;BME280;24211;49.980;19.776;2023-02-26T02:21:04;98248.22;;;2.11;100.00
38939;BME280;24211;49.980;19.776;2023-02-26T02:28:05;98278.00;;;2.05;100.00
38939;BME280;24211;49.980;19.776;2023-02-26T02:30:59;98304.13;;;2.00;100.00
38939;BME280;24211;49.980;19.776;2023-02-26T02:33:56;98317.50;;;1.98;100.00
38939;BME280;24211;49.980;19.776;2023-02-26T02:36:46;98311.19;;;1.99;100.00
38939;BME280;24211;49.980;19.776;2023-02-26T02:39:27;98315.03;;;1.97;100.00
38939;BME280;24211;49.980;19.776;2023-02-26T02:42:20;98315.25;;;2.02;100.00
38939;BME280;24211;49.980;19.776;2023-02-26T02:45:07;98320.34;;;2.04;100.00
38939;BME280;24211;49.980;19.776;2023-02-26T02:47:41;98326.41;;;2.04;100.00
38939;BME280;24211;49.980;19.776;2023-02-26T02:50:24;98326.03;;;2.07;100.00
38939;BME280;24211;49.980;19.776;2023-02-26T02:53:07;98320.38;;;2.10;100.00
38939;BME280;24211;49.980;19.776;2023-02-26T02:55:42;98315.50;;;2.07;100.00
38939;BME280;24211;49.980;19.776;2023-02-26T03:01:51;98303.13;;;2.01;100.00
38939;BME280;24211;49.980;19.776;2023-02-26T03:04:20;98298.84;;;2.00;100.00
38939;BME280;24211;49.980;19.776;2023-02-26T03:06:47;98286.66;;;1.99;100.00
38939;BME280;24211;49.980;19.776;2023-02-26T03:09:17;98278.19;;;2.04;100.00
38939;BME280;24211;49.980;19.776;2023-02-26T03:11:45;98279.00;;;2.04;100.00
38939;BME280;24211;49.980;19.776;2023-02-26T03:14:14;98282.66;;;2.03;100.00
38939;BME280;24211;49.980;19.776;2023-02-26T03:17:49;98300.47;;;2.01;100.00
38939;BME280;24211;49.980;19.776;2023-02-26T03:20:34;98302.91;;;2.03;100.00
38939;BME280;24211;49.980;19.776;2023-02-26T03:23:13;98316.91;;;2.03;100.00
38939;BME280;24211;49.980;19.776;2023-02-26T03:25:50;98330.47;;;2.00;100.00
38939;BME280;24211;49.980;19.776;2023-02-26T03:31:01;98354.56;;;1.97;100.00
38939;BME280;24211;49.980;19.776;2023-02-26T03:33:55;98361.84;;;1.95;100.00
38939;BME280;24211;49.980;19.776;2023-02-26T03:36:32;98368.53;;;1.97;100.00
38939;BME280;24211;49.980;19.776;2023-02-26T03:39:56;98375.41;;;1.92;100.00
38939;BME280;24211;49.980;19.776;2023-02-26T03:42:52;98382.06;;;1.88;100.00
38939;BME280;24211;49.980;19.776;2023-02-26T03:45:29;98375.75;;;1.82;100.00
38939;BME280;24211;49.980;19.776;2023-02-26T03:48:00;98379.81;;;1.85;100.00
38939;BME280;24211;49.980;19.776;2023-02-26T03:50:35;98376.94;;;1.80;100.00
38939;BME280;24211;49.980;19.776;2023-02-26T03:53:52;98366.41;;;1.80;100.00
38939;BME280;24211;49.980;19.776;2023-02-26T03:56:32;98373.31;;;1.81;100.00
38939;BME280;24211;49.980;19.776;2023-02-26T03:59:17;98369.03;;;1.80;100.00
38939;BME280;24211;49.980;19.776;2023-02-26T04:02:02;98379.19;;;1.83;100.00
38939;BME280;24211;49.980;19.776;2023-02-26T04:04:48;98378.56;;;1.81;100.00
38939;BME280;24211;49.980;19.776;2023-02-26T04:07:18;98389.53;;;1.84;100.00
38939;BME280;24211;49.980;19.776;2023-02-26T04:09:49;98404.97;;;1.87;100.00
38939;BME280;24211;49.980;19.776;2023-02-26T04:12:23;98407.41;;;1.89;100.00
38939;BME280;24211;49.980;19.776;2023-02-26T04:14:55;98417.97;;;1.89;100.00
38939;BME280;24211;49.980;19.776;2023-02-26T04:17:24;98416.31;;;1.88;100.00
38939;BME280;24211;49.980;19.776;2023-02-26T04:19:51;98431.25;;;1.81;100.00
38939;BME280;24211;49.980;19.776;2023-02-26T04:22:18;98436.66;;;1.73;100.00
38939;BME280;24211;49.980;19.776;2023-02-26T04:24:46;98440.56;;;1.77;100.00
38939;BME280;24211;49.980;19.776;2023-02-26T04:27:14;98437.47;;;1.73;100.00
38939;BME280;24211;49.980;19.776;2023-02-26T04:29:42;98444.56;;;1.73;100.00
38939;BME280;24211;49.980;19.776;2023-02-26T04:32:10;98449.81;;;1.73;100.00
38939;BME280;24211;49.980;19.776;2023-02-26T04:34:37;98449.81;;;1.73;100.00
38939;BME280;24211;49.980;19.776;2023-02-26T04:37:05;98453.84;;;1.69;100.00
38939;BME280;24211;49.980;19.776;2023-02-26T04:39:32;98450.19;;;1.70;100.00
38939;BME280;24211;49.980;19.776;2023-02-26T04:41:59;98460.72;;;1.70;100.00
38939;BME280;24211;49.980;19.776;2023-02-26T04:44:27;98466.00;;;1.70;100.00
38939;BME280;24211;49.980;19.776;2023-02-26T04:46:54;98477.81;;;1.74;100.00
38939;BME280;24211;49.980;19.776;2023-02-26T04:49:22;98467.31;;;1.80;100.00
38939;BME280;24211;49.980;19.776;2023-02-26T04:51:51;98473.03;;;1.84;100.00
38939;BME280;24211;49.980;19.776;2023-02-26T04:54:19;98472.22;;;1.83;100.00
38939;BME280;24211;49.980;19.776;2023-02-26T04:56:47;98477.66;;;1.82;100.00
38939;BME280;24211;49.980;19.776;2023-02-26T04:59:14;98472.38;;;1.82;100.00
38939;BME280;24211;49.980;19.776;2023-02-26T05:01:42;98463.25;;;1.78;100.00
38939;BME280;24211;49.980;19.776;2023-02-26T05:04:09;98481.94;;;1.83;100.00
38939;BME280;24211;49.980;19.776;2023-02-26T05:06:38;98481.94;;;1.83;100.00
38939;BME280;24211;49.980;19.776;2023-02-26T05:09:05;98494.09;;;1.84;100.00
38939;BME280;24211;49.980;19.776;2023-02-26T05:11:32;98492.84;;;1.80;100.00
38939;BME280;24211;49.980;19.776;2023-02-26T05:13:59;98491.22;;;1.79;100.00
38939;BME280;24211;49.980;19.776;2023-02-26T05:16:28;98488.38;;;1.80;100.00
38939;BME280;24211;49.980;19.776;2023-02-26T05:18:56;98488.38;;;1.80;100.00
38939;BME280;24211;49.980;19.776;2023-02-26T05:21:23;98490.81;;;1.82;100.00
38939;BME280;24211;49.980;19.776;2023-02-26T05:23:52;98497.38;;;1.86;100.00
38939;BME280;24211;49.980;19.776;2023-02-26T05:26:19;98496.09;;;1.82;100.00
38939;BME280;24211;49.980;19.776;2023-02-26T05:28:46;98500.13;;;1.78;100.00
38939;BME280;24211;49.980;19.776;2023-02-26T05:31:15;98503.31;;;1.73;100.00
38939;BME280;24211;49.980;19.776;2023-02-26T05:33:42;98511.03;;;1.75;100.00
38939;BME280;24211;49.980;19.776;2023-02-26T05:36:10;98513.03;;;1.73;100.00
38939;BME280;24211;49.980;19.776;2023-02-26T05:38:38;98522.31;;;1.69;100.00
38939;BME280;24211;49.980;19.776;2023-02-26T05:41:05;98530.59;;;1.66;100.00
38939;BME280;24211;49.980;19.776;2023-02-26T05:43:32;98542.13;;;1.65;100.00
38939;BME280;24211;49.980;19.776;2023-02-26T05:46:00;98562.94;;;1.60;100.00
38939;BME280;24211;49.980;19.776;2023-02-26T05:48:27;98572.84;;;1.58;100.00
38939;BME280;24211;49.980;19.776;2023-02-26T05:50:54;98572.84;;;1.58;100.00
38939;BME280;24211;49.980;19.776;2023-02-26T05:53:21;98574.84;;;1.56;100.00
38939;BME280;24211;49.980;19.776;2023-02-26T05:55:49;98574.84;;;1.56;100.00
38939;BME280;24211;49.980;19.776;2023-02-26T05:58:18;98582.56;;;1.57;100.00
38939;BME280;24211;49.980;19.776;2023-02-26T06:00:46;98585.13;;;1.51;100.00
38939;BME280;24211;49.980;19.776;2023-02-26T06:03:13;98590.66;;;1.56;100.00
38939;BME280;24211;49.980;19.776;2023-02-26T06:05:40;98588.00;;;1.56;100.00
38939;BME280;24211;49.980;19.776;2023-02-26T06:08:07;98590.66;;;1.56;100.00
38939;BME280;24211;49.980;19.776;2023-02-26T06:10:35;98595.53;;;1.59;100.00
38939;BME280;24211;49.980;19.776;2023-02-26T06:13:02;98601.81;;;1.58;100.00
38939;BME280;24211;49.980;19.776;2023-02-26T06:15:29;98608.44;;;1.54;100.00
38939;BME280;24211;49.980;19.776;2023-02-26T06:17:56;98616.97;;;1.56;100.00
38939;BME280;24211;49.980;19.776;2023-02-26T06:20:23;98624.88;;;1.56;100.00
38939;BME280;24211;49.980;19.776;2023-02-26T06:22:50;98628.34;;;1.56;100.00
38939;BME280;24211;49.980;19.776;2023-02-26T06:25:18;98637.69;;;1.59;100.00
38939;BME280;24211;49.980;19.776;2023-02-26T06:27:45;98654.66;;;1.56;100.00
38939;BME280;24211;49.980;19.776;2023-02-26T06:30:12;98653.03;;;1.55;100.00
38939;BME280;24211;49.980;19.776;2023-02-26T06:32:39;98653.84;;;1.56;100.00
38939;BME280;24211;49.980;19.776;2023-02-26T06:35:07;98663.38;;;1.57;100.00
38939;BME280;24211;49.980;19.776;2023-02-26T06:37:35;98668.03;;;1.55;100.00
38939;BME280;24211;49.980;19.776;2023-02-26T06:40:03;98658.22;;;1.49;100.00
38939;BME280;24211;49.980;19.776;2023-02-26T06:42:31;98659.84;;;1.50;100.00
38939;BME280;24211;49.980;19.776;2023-02-26T06:44:58;98662.28;;;1.51;100.00
38939;BME280;24211;49.980;19.776;2023-02-26T06:47:25;98653.47;;;1.59;100.00
38939;BME280;24211;49.980;19.776;2023-02-26T06:49:52;98654.72;;;1.63;100.00
38939;BME280;24211;49.980;19.776;2023-02-26T06:52:19;98656.38;;;1.64;100.00
38939;BME280;24211;49.980;19.776;2023-02-26T06:54:47;98661.44;;;1.65;100.00
38939;BME280;24211;49.980;19.776;2023-02-26T06:57:14;98660.63;;;1.65;100.00
38939;BME280;24211;49.980;19.776;2023-02-26T06:59:41;98656.44;;;1.70;100.00
38939;BME280;24211;49.980;19.776;2023-02-26T07:02:17;98667.25;;;1.75;100.00
38939;BME280;24211;49.980;19.776;2023-02-26T07:04:45;98673.16;;;1.77;100.00
38939;BME280;24211;49.980;19.776;2023-02-26T07:07:12;98665.72;;;1.81;100.00
38939;BME280;24211;49.980;19.776;2023-02-26T07:09:40;98664.63;;;1.75;100.00
38939;BME280;24211;49.980;19.776;2023-02-26T07:12:07;98660.91;;;1.70;100.00
38939;BME280;24211;49.980;19.776;2023-02-26T07:14:34;98664.97;;;1.72;100.00
38939;BME280;24211;49.980;19.776;2023-02-26T07:17:02;98670.09;;;1.74;100.00
38939;BME280;24211;49.980;19.776;2023-02-26T07:19:29;98676.88;;;1.83;100.00
38939;BME280;24211;49.980;19.776;2023-02-26T07:21:56;98682.13;;;1.83;100.00
38939;BME280;24211;49.980;19.776;2023-02-26T07:24:24;98681.69;;;1.79;100.00
38939;BME280;24211;49.980;19.776;2023-02-26T07:26:51;98685.41;;;1.85;100.00
38939;BME280;24211;49.980;19.776;2023-02-26T07:29:19;98695.56;;;1.88;100.00
38939;BME280;24211;49.980;19.776;2023-02-26T07:31:46;98690.06;;;2.04;100.00
38939;BME280;24211;49.980;19.776;2023-02-26T07:34:13;98686.72;;;2.10;100.00
38939;BME280;24211;49.980;19.776;2023-02-26T07:36:40;98687.78;;;2.16;100.00
38939;BME280;24211;49.980;19.776;2023-02-26T07:39:08;98683.84;;;2.26;100.00
38939;BME280;24211;49.980;19.776;2023-02-26T07:41:35;98699.28;;;2.29;100.00
38939;BME280;24211;49.980;19.776;2023-02-26T07:44:02;98713.59;;;2.20;100.00
38939;BME280;24211;49.980;19.776;2023-02-26T07:46:29;98729.31;;;2.28;100.00
38939;BME280;24211;49.980;19.776;2023-02-26T07:48:56;98730.03;;;2.22;100.00
38939;BME280;24211;49.980;19.776;2023-02-26T07:51:23;98737.31;;;2.20;100.00
38939;BME280;24211;49.980;19.776;2023-02-26T07:53:51;98747.41;;;2.17;100.00
38939;BME280;24211;49.980;19.776;2023-02-26T07:56:18;98743.72;;;2.11;100.00
38939;BME280;24211;49.980;19.776;2023-02-26T07:58:45;98753.44;;;2.11;100.00
38939;BME280;24211;49.980;19.776;2023-02-26T08:01:13;98749.88;;;2.18;100.00
38939;BME280;24211;49.980;19.776;2023-02-26T08:03:40;98752.94;;;2.22;100.00
38939;BME280;24211;49.980;19.776;2023-02-26T08:06:07;98759.03;;;2.22;100.00
38939;BME280;24211;49.980;19.776;2023-02-26T08:08:34;98756.41;;;2.22;100.00
38939;BME280;24211;49.980;19.776;2023-02-26T08:11:02;98764.94;;;2.24;100.00
38939;BME280;24211;49.980;19.776;2023-02-26T08:13:29;98775.13;;;2.27;100.00
38939;BME280;24211;49.980;19.776;2023-02-26T08:15:56;98768.19;;;2.26;100.00
38939;BME280;24211;49.980;19.776;2023-02-26T08:18:24;98777.13;;;2.25;100.00
38939;BME280;24211;49.980;19.776;2023-02-26T08:20:51;98788.03;;;2.22;100.00
38939;BME280;24211;49.980;19.776;2023-02-26T08:23:18;98794.94;;;2.23;100.00
38939;BME280;24211;49.980;19.776;2023-02-26T08:25:45;98791.91;;;2.26;100.00
38939;BME280;24211;49.980;19.776;2023-02-26T08:28:13;98795.03;;;2.30;100.00
38939;BME280;24211;49.980;19.776;2023-02-26T08:30:40;98794.56;;;2.26;100.00
38939;BME280;24211;49.980;19.776;2023-02-26T08:33:07;98801.00;;;2.24;100.00
38939;BME280;24211;49.980;19.776;2023-02-26T08:35:34;98804.66;;;2.23;100.00
38939;BME280;24211;49.980;19.776;2023-02-26T08:38:02;98802.59;;;2.18;100.00
38939;BME280;24211;49.980;19.776;2023-02-26T08:40:29;98809.88;;;2.16;100.00
38939;BME280;24211;49.980;19.776;2023-02-26T08:42:56;98811.84;;;2.14;100.00
38939;BME280;24211;49.980;19.776;2023-02-26T08:45:26;98824.03;;;2.15;100.00
38939;BME280;24211;49.980;19.776;2023-02-26T08:47:53;98820.84;;;2.20;100.00
38939;BME280;24211;49.980;19.776;2023-02-26T08:50:24;98824.31;;;2.20;100.00
38939;BME280;24211;49.980;19.776;2023-02-26T08:53:02;98826.94;;;2.20;100.00
38939;BME280;24211;49.980;19.776;2023-02-26T08:55:29;98827.38;;;2.24;100.00
38939;BME280;24211;49.980;19.776;2023-02-26T08:57:56;98829.47;;;2.43;100.00
38939;BME280;24211;49.980;19.776;2023-02-26T09:00:23;98833.13;;;2.78;100.00
38939;BME280;24211;49.980;19.776;2023-02-26T09:02:50;98840.59;;;2.95;100.00
38939;BME280;24211;49.980;19.776;2023-02-26T09:05:18;98841.97;;;2.91;100.00
38939;BME280;24211;49.980;19.776;2023-02-26T09:07:45;98854.59;;;2.75;100.00
38939;BME280;24211;49.980;19.776;2023-02-26T09:10:14;98840.28;;;2.84;100.00
38939;BME280;24211;49.980;19.776;2023-02-26T09:12:42;98853.66;;;2.82;100.00
38939;BME280;24211;49.980;19.776;2023-02-26T09:15:11;98857.81;;;2.91;100.00
38939;BME280;24211;49.980;19.776;2023-02-26T09:17:39;98870.44;;;2.96;100.00
38939;BME280;24211;49.980;19.776;2023-02-26T09:20:07;98865.22;;;3.02;100.00
38939;BME280;24211;49.980;19.776;2023-02-26T09:22:35;98867.31;;;3.07;100.00
38939;BME280;24211;49.980;19.776;2023-02-26T09:25:04;98872.19;;;3.10;100.00
38939;BME280;24211;49.980;19.776;2023-02-26T09:27:32;98863.03;;;3.27;100.00
38939;BME280;24211;49.980;19.776;2023-02-26T09:30:05;98869.00;;;3.36;100.00
38939;BME280;24211;49.980;19.776;2023-02-26T09:32:33;98871.34;;;3.45;100.00
38939;BME280;24211;49.980;19.776;2023-02-26T09:35:00;98863.31;;;3.60;100.00
38939;BME280;24211;49.980;19.776;2023-02-26T09:37:28;98869.81;;;3.57;100.00
38939;BME280;24211;49.980;19.776;2023-02-26T09:39:55;98873.94;;;3.66;100.00
38939;BME280;24211;49.980;19.776;2023-02-26T09:45:38;98881.22;;;3.85;100.00
38939;BME280;24211;49.980;19.776;2023-02-26T09:48:14;98875.28;;;3.83;100.00
38939;BME280;24211;49.980;19.776;2023-02-26T09:50:55;98874.53;;;3.89;100.00
38939;BME280;24211;49.980;19.776;2023-02-26T09:53:35;98871.75;;;3.97;100.00
38939;BME280;24211;49.980;19.776;2023-02-26T09:56:12;98869.81;;;4.13;100.00
38939;BME280;24211;49.980;19.776;2023-02-26T09:58:42;98867.91;;;4.34;100.00
38939;BME280;24211;49.980;19.776;2023-02-26T10:02:15;98872.22;;;4.42;100.00
38939;BME280;24211;49.980;19.776;2023-02-26T10:07:46;98881.31;;;4.80;100.00
38939;BME280;24211;49.980;19.776;2023-02-26T10:10:50;98875.91;;;5.08;100.00
38939;BME280;24211;49.980;19.776;2023-02-26T10:14:01;98894.28;;;5.22;100.00
38939;BME280;24211;49.980;19.776;2023-02-26T10:16:38;98899.53;;;5.09;100.00
38939;BME280;24211;49.980;19.776;2023-02-26T10:19:14;98900.78;;;5.13;100.00
38939;BME280;24211;49.980;19.776;2023-02-26T10:21:54;98907.19;;;4.78;100.00
38939;BME280;24211;49.980;19.776;2023-02-26T10:24:31;98906.66;;;4.55;100.00
38939;BME280;24211;49.980;19.776;2023-02-26T10:27:11;98920.22;;;4.39;100.00
38939;BME280;24211;49.980;19.776;2023-02-26T10:30:04;98917.81;;;4.16;100.00
38939;BME280;24211;49.980;19.776;2023-02-26T10:32:42;98921.09;;;4.18;100.00
38939;BME280;24211;49.980;19.776;2023-02-26T10:35:17;98926.00;;;4.21;100.00
38939;BME280;24211;49.980;19.776;2023-02-26T10:38:04;98929.31;;;4.30;100.00
38939;BME280;24211;49.980;19.776;2023-02-26T10:40:49;98925.28;;;4.34;100.00
38939;BME280;24211;49.980;19.776;2023-02-26T10:43:28;98928.88;;;4.26;100.00
38939;BME280;24211;49.980;19.776;2023-02-26T10:52:18;98950.06;;;4.33;100.00
38939;BME280;24211;49.980;19.776;2023-02-26T10:55:03;98945.25;;;4.43;100.00
38939;BME280;24211;49.980;19.776;2023-02-26T10:57:39;98949.59;;;4.50;100.00
38939;BME280;24211;49.980;19.776;2023-02-26T11:00:26;98961.59;;;4.53;100.00
38939;BME280;24211;49.980;19.776;2023-02-26T11:02:56;98953.94;;;4.64;100.00
38939;BME280;24211;49.980;19.776;2023-02-26T11:06:08;98962.47;;;4.60;100.00
38939;BME280;24211;49.980;19.776;2023-02-26T11:08:42;98967.72;;;4.53;100.00
38939;BME280;24211;49.980;19.776;2023-02-26T11:14:09;98970.78;;;4.91;100.00
38939;BME280;24211;49.980;19.776;2023-02-26T11:16:48;98967.56;;;5.02;100.00
38939;BME280;24211;49.980;19.776;2023-02-26T11:19:16;98972.09;;;5.21;100.00
38939;BME280;24211;49.980;19.776;2023-02-26T11:21:46;98987.41;;;5.19;100.00
38939;BME280;24211;49.980;19.776;2023-02-26T11:24:31;98980.66;;;5.23;100.00
38939;BME280;24211;49.980;19.776;2023-02-26T11:27:03;98979.50;;;5.33;100.00
38939;BME280;24211;49.980;19.776;2023-02-26T11:29:42;98993.41;;;5.48;100.00
38939;BME280;24211;49.980;19.776;2023-02-26T11:32:34;98997.91;;;5.54;100.00
38939;BME280;24211;49.980;19.776;2023-02-26T11:35:07;99012.19;;;5.53;100.00
38939;BME280;24211;49.980;19.776;2023-02-26T11:37:38;99008.53;;;5.67;100.00
38939;BME280;24211;49.980;19.776;2023-02-26T11:40:17;99012.38;;;5.58;100.00
38939;BME280;24211;49.980;19.776;2023-02-26T11:42:58;99019.03;;;5.27;100.00
38939;BME280;24211;49.980;19.776;2023-02-26T11:45:28;99032.69;;;4.90;100.00
38939;BME280;24211;49.980;19.776;2023-02-26T11:48:03;99027.63;;;4.61;100.00
38939;BME280;24211;49.980;19.776;2023-02-26T11:50:46;99040.75;;;4.48;100.00
38939;BME280;24211;49.980;19.776;2023-02-26T11:53:34;99049.34;;;4.29;100.00
38939;BME280;24211;49.980;19.776;2023-02-26T11:56:12;99039.47;;;4.16;100.00
38939;BME280;24211;49.980;19.776;2023-02-26T11:58:44;99038.47;;;3.96;100.00
38939;BME280;24211;49.980;19.776;2023-02-26T12:01:14;99049.09;;;3.81;100.00
38939;BME280;24211;49.980;19.776;2023-02-26T12:03:47;99050.19;;;3.87;100.00
38939;BME280;24211;49.980;19.776;2023-02-26T12:06:22;99056.66;;;3.84;100.00
38939;BME280;24211;49.980;19.776;2023-02-26T12:08:52;99057.03;;;3.81;100.00
38939;BME280;24211;49.980;19.776;2023-02-26T12:15:12;99066.97;;;3.79;100.00
38939;BME280;24211;49.980;19.776;2023-02-26T12:18:37;99072.91;;;3.81;100.00
38939;BME280;24211;49.980;19.776;2023-02-26T12:21:28;99062.94;;;3.83;100.00
38939;BME280;24211;49.980;19.776;2023-02-26T12:27:51;99077.31;;;4.17;100.00
38939;BME280;24211;49.980;19.776;2023-02-26T12:40:04;99084.56;;;4.57;100.00
38939;BME280;24211;49.980;19.776;2023-02-26T12:42:59;99081.03;;;4.71;100.00
38939;BME280;24211;49.980;19.776;2023-02-26T12:51:35;99084.47;;;4.99;100.00
38939;BME280;24211;49.980;19.776;2023-02-26T12:57:44;99106.13;;;5.09;100.00
38939;BME280;24211;49.980;19.776;2023-02-26T13:08:14;99137.38;;;4.02;100.00
38939;BME280;24211;49.980;19.776;2023-02-26T13:14:21;99144.41;;;3.44;100.00
38939;BME280;24211;49.980;19.776;2023-02-26T13:17:14;99147.03;;;3.59;100.00
38939;BME280;24211;49.980;19.776;2023-02-26T13:19:54;99150.75;;;3.64;100.00
38939;BME280;24211;49.980;19.776;2023-02-26T13:22:39;99149.41;;;3.68;100.00
38939;BME280;24211;49.980;19.776;2023-02-26T13:25:54;99159.59;;;3.71;100.00
38939;BME280;24211;49.980;19.776;2023-02-26T13:28:55;99155.16;;;3.57;100.00
38939;BME280;24211;49.980;19.776;2023-02-26T13:31:40;99166.28;;;3.53;100.00
38939;BME280;24211;49.980;19.776;2023-02-26T13:34:19;99168.91;;;3.53;100.00
38939;BME280;24211;49.980;19.776;2023-02-26T13:36:49;99168.09;;;3.52;100.00
38939;BME280;24211;49.980;19.776;2023-02-26T13:39:55;99172.25;;;3.61;100.00
38939;BME280;24211;49.980;19.776;2023-02-26T13:42:42;99179.66;;;3.66;100.00
38939;BME280;24211;49.980;19.776;2023-02-26T13:45:53;99198.94;;;3.08;100.00
38939;BME280;24211;49.980;19.776;2023-02-26T13:48:39;99196.97;;;2.73;100.00
38939;BME280;24211;49.980;19.776;2023-02-26T13:51:34;99205.81;;;2.80;100.00
38939;BME280;24211;49.980;19.776;2023-02-26T14:05:34;99209.53;;;3.22;100.00
38939;BME280;24211;49.980;19.776;2023-02-26T14:08:25;99222.56;;;3.24;100.00
38939;BME280;24211;49.980;19.776;2023-02-26T14:11:01;99225.19;;;3.24;100.00
38939;BME280;24211;49.980;19.776;2023-02-26T14:13:38;99234.75;;;3.25;100.00
38939;BME280;24211;49.980;19.776;2023-02-26T14:16:27;99227.47;;;3.27;100.00
38939;BME280;24211;49.980;19.776;2023-02-26T14:19:21;99224.22;;;3.02;100.00
38939;BME280;24211;49.980;19.776;2023-02-26T14:21:56;99219.31;;;2.99;100.00
38939;BME280;24211;49.980;19.776;2023-02-26T14:24:36;99223.34;;;3.10;100.00
38939;BME280;24211;49.980;19.776;2023-02-26T14:27:35;99229.56;;;3.17;100.00
38939;BME280;24211;49.980;19.776;2023-02-26T14:35:42;99225.91;;;3.18;100.00
38939;BME280;24211;49.980;19.776;2023-02-26T14:38:30;99225.84;;;3.26;100.00
38939;BME280;24211;49.980;19.776;2023-02-26T14:41:09;99231.13;;;3.26;100.00
38939;BME280;24211;49.980;19.776;2023-02-26T14:44:01;99233.13;;;3.24;100.00
38939;BME280;24211;49.980;19.776;2023-02-26T14:46:34;99222.91;;;3.21;100.00
38939;BME280;24211;49.980;19.776;2023-02-26T14:49:03;99232.84;;;3.19;100.00
38939;BME280;24211;49.980;19.776;2023-02-26T14:51:53;99232.66;;;3.20;100.00
38939;BME280;24211;49.980;19.776;2023-02-26T15:01:00;99245.56;;;3.15;100.00
38939;BME280;24211;49.980;19.776;2023-02-26T15:14:53;99279.06;;;3.15;100.00
38939;BME280;24211;49.980;19.776;2023-02-26T15:17:46;99286.34;;;3.13;100.00
38939;BME280;24211;49.980;19.776;2023-02-26T15:23:37;99278.38;;;2.22;100.00
38939;BME280;24211;49.980;19.776;2023-02-26T15:26:07;99301.34;;;2.44;100.00
38939;BME280;24211;49.980;19.776;2023-02-26T15:28:41;99310.50;;;2.56;100.00